AAL2052 KPNS-KDFW
Flight info
| Callsign | AAL2052 |
|---|---|
| Flight time | 1h 44m |
| Altitude | 16000 |
| Route | PENSI V198 LOXLY/N0444F340 SJI AEX PNUTS WHINY4 |
| Aircraft | A320/M-SDE3FGHIRWY/LB1 |
Departure
| Time | 2026-05-01 13:37 |
|---|---|
| Airport | Pensacola International Airport (KPNS) |
Arrival
| Time | 2026-05-01 15:21 |
|---|---|
| Airport | Dallas Fort Worth International Airport (KDFW) |
| Time | Latitude | Longitude | Altitude | Speed | Heading |
|---|---|---|---|---|---|
| 2026-05-01 12:49 | 30.47493 | -87.19274 | 129 ft | 0 kts | 27° |
| 2026-05-01 13:30 | 30.47452 | -87.19333 | 129 ft | 1 kts | 124° |
| 2026-05-01 13:31 | 30.47454 | -87.19337 | 129 ft | 0 kts | 124° |
| 2026-05-01 13:33 | 30.47450 | -87.19329 | 126 ft | 4 kts | 123° |
| 2026-05-01 13:34 | 30.47367 | -87.19307 | 125 ft | 10 kts | 206° |
| 2026-05-01 13:34 | 30.47298 | -87.19438 | 126 ft | 11 kts | 257° |
| 2026-05-01 13:35 | 30.47243 | -87.19606 | 127 ft | 9 kts | 189° |
| 2026-05-01 13:35 | 30.47228 | -87.19604 | 129 ft | 0 kts | 172° |
| 2026-05-01 13:36 | 30.47209 | -87.19600 | 124 ft | 7 kts | 169° |
| 2026-05-01 13:36 | 30.47154 | -87.19586 | 126 ft | 9 kts | 159° |
| 2026-05-01 13:36 | 30.47145 | -87.19541 | 128 ft | 6 kts | 78° |
| 2026-05-01 13:37 | 30.47226 | -87.19106 | 126 ft | 102 kts | 77° |
| 2026-05-01 13:37 | 30.47402 | -87.18198 | 196 ft | 156 kts | 76° |
| 2026-05-01 13:37 | 30.47640 | -87.16949 | 904 ft | 158 kts | 77° |
| 2026-05-01 13:37 | 30.47855 | -87.15724 | 1642 ft | 152 kts | 77° |
| 2026-05-01 13:38 | 30.49338 | -87.14039 | 2289 ft | 182 kts | 5° |
| 2026-05-01 13:38 | 30.50629 | -87.14339 | 2564 ft | 202 kts | 338° |
| 2026-05-01 13:38 | 30.52022 | -87.14972 | 2843 ft | 228 kts | 338° |
| 2026-05-01 13:39 | 30.53577 | -87.15687 | 3283 ft | 253 kts | 338° |
| 2026-05-01 13:39 | 30.55252 | -87.16457 | 4046 ft | 263 kts | 338° |
| 2026-05-01 13:39 | 30.56973 | -87.17243 | 4998 ft | 267 kts | 337° |
| 2026-05-01 13:39 | 30.58714 | -87.18038 | 5949 ft | 271 kts | 336° |
| 2026-05-01 13:40 | 30.60465 | -87.18834 | 6843 ft | 277 kts | 336° |
| 2026-05-01 13:40 | 30.62270 | -87.19653 | 7742 ft | 281 kts | 336° |
| 2026-05-01 13:40 | 30.64103 | -87.20482 | 8611 ft | 284 kts | 335° |
| 2026-05-01 13:40 | 30.65961 | -87.21321 | 9442 ft | 289 kts | 335° |
| 2026-05-01 13:41 | 30.67840 | -87.22173 | 10227 ft | 294 kts | 334° |
| 2026-05-01 13:41 | 30.69819 | -87.23074 | 10524 ft | 316 kts | 334° |
| 2026-05-01 13:41 | 30.71904 | -87.24028 | 11101 ft | 325 kts | 334° |
| 2026-05-01 13:41 | 30.74024 | -87.24993 | 11880 ft | 328 kts | 333° |
| 2026-05-01 13:42 | 30.75980 | -87.26236 | 12653 ft | 323 kts | 317° |
| 2026-05-01 13:42 | 30.77533 | -87.28072 | 13434 ft | 317 kts | 301° |
| 2026-05-01 13:42 | 30.78540 | -87.30324 | 14228 ft | 313 kts | 286° |
| 2026-05-01 13:42 | 30.78959 | -87.32793 | 14983 ft | 312 kts | 272° |
| 2026-05-01 13:43 | 30.78868 | -87.35314 | 15727 ft | 312 kts | 266° |
| 2026-05-01 13:43 | 30.78716 | -87.37837 | 16448 ft | 314 kts | 266° |
| 2026-05-01 13:43 | 30.78564 | -87.40372 | 17139 ft | 315 kts | 266° |
| 2026-05-01 13:43 | 30.78412 | -87.42917 | 17833 ft | 316 kts | 266° |
| 2026-05-01 13:44 | 30.78261 | -87.45475 | 18514 ft | 318 kts | 266° |
| 2026-05-01 13:44 | 30.78110 | -87.48046 | 19161 ft | 320 kts | 266° |
| 2026-05-01 13:44 | 30.77959 | -87.50614 | 19760 ft | 324 kts | 266° |
| 2026-05-01 13:44 | 30.77806 | -87.53244 | 20350 ft | 328 kts | 266° |
| 2026-05-01 13:45 | 30.77651 | -87.55903 | 20928 ft | 331 kts | 266° |
| 2026-05-01 13:45 | 30.77495 | -87.58592 | 21444 ft | 335 kts | 266° |
| 2026-05-01 13:45 | 30.77333 | -87.61311 | 21962 ft | 339 kts | 266° |
| 2026-05-01 13:45 | 30.77165 | -87.64065 | 22464 ft | 343 kts | 266° |
| 2026-05-01 13:46 | 30.76994 | -87.66843 | 22974 ft | 347 kts | 266° |
| 2026-05-01 13:46 | 30.76820 | -87.69657 | 23455 ft | 351 kts | 266° |
| 2026-05-01 13:46 | 30.76645 | -87.72501 | 23927 ft | 355 kts | 266° |
| 2026-05-01 13:46 | 30.76467 | -87.75335 | 24382 ft | 358 kts | 266° |
| 2026-05-01 13:47 | 30.76286 | -87.78234 | 24858 ft | 361 kts | 266° |
| 2026-05-01 13:47 | 30.76107 | -87.81155 | 25329 ft | 363 kts | 266° |
| 2026-05-01 13:47 | 30.75927 | -87.84098 | 25787 ft | 366 kts | 265° |
| 2026-05-01 13:47 | 30.75744 | -87.87051 | 26253 ft | 368 kts | 265° |
| 2026-05-01 13:48 | 30.75558 | -87.90025 | 26693 ft | 370 kts | 265° |
| 2026-05-01 13:48 | 30.75371 | -87.93010 | 27129 ft | 372 kts | 265° |
| 2026-05-01 13:48 | 30.75180 | -87.96021 | 27538 ft | 374 kts | 265° |
| 2026-05-01 13:48 | 30.74987 | -87.99043 | 27942 ft | 376 kts | 265° |
| 2026-05-01 13:49 | 30.74796 | -88.02042 | 28347 ft | 378 kts | 264° |
| 2026-05-01 13:49 | 30.74602 | -88.05093 | 28741 ft | 380 kts | 264° |
| 2026-05-01 13:49 | 30.74408 | -88.08162 | 29123 ft | 382 kts | 264° |
| 2026-05-01 13:49 | 30.74210 | -88.11246 | 29507 ft | 384 kts | 264° |
| 2026-05-01 13:50 | 30.74034 | -88.13996 | 29847 ft | 385 kts | 264° |
| 2026-05-01 13:50 | 30.73834 | -88.17111 | 30221 ft | 387 kts | 264° |
| 2026-05-01 13:50 | 30.73633 | -88.20240 | 30586 ft | 389 kts | 264° |
| 2026-05-01 13:50 | 30.73429 | -88.23382 | 30961 ft | 391 kts | 264° |
| 2026-05-01 13:51 | 30.73222 | -88.26535 | 31331 ft | 392 kts | 264° |
| 2026-05-01 13:51 | 30.73013 | -88.29653 | 31724 ft | 392 kts | 265° |
| 2026-05-01 13:51 | 30.72804 | -88.32796 | 32230 ft | 389 kts | 265° |
| 2026-05-01 13:51 | 30.72700 | -88.35928 | 32739 ft | 387 kts | 272° |
| 2026-05-01 13:52 | 30.73039 | -88.39022 | 33247 ft | 385 kts | 278° |
| 2026-05-01 13:52 | 30.73488 | -88.42076 | 33757 ft | 383 kts | 278° |
| 2026-05-01 13:52 | 30.73930 | -88.45121 | 33959 ft | 380 kts | 278° |
| 2026-05-01 13:52 | 30.74361 | -88.48111 | 33997 ft | 369 kts | 277° |
| 2026-05-01 13:53 | 30.74778 | -88.51029 | 34000 ft | 364 kts | 277° |
| 2026-05-01 13:53 | 30.76010 | -88.59628 | 33998 ft | 360 kts | 278° |
| 2026-05-01 13:54 | 30.76832 | -88.65356 | 33994 ft | 359 kts | 277° |
| 2026-05-01 13:54 | 30.77645 | -88.71093 | 33990 ft | 359 kts | 277° |
| 2026-05-01 13:55 | 30.78461 | -88.76828 | 33990 ft | 360 kts | 277° |
| 2026-05-01 13:55 | 30.79274 | -88.82567 | 33993 ft | 360 kts | 277° |
| 2026-05-01 13:56 | 30.80078 | -88.88274 | 33996 ft | 360 kts | 277° |
| 2026-05-01 13:56 | 30.80886 | -88.94018 | 33996 ft | 359 kts | 277° |
| 2026-05-01 13:57 | 30.81548 | -88.98791 | 33998 ft | 360 kts | 277° |
| 2026-05-01 13:57 | 30.82486 | -89.05507 | 33999 ft | 360 kts | 277° |
| 2026-05-01 13:58 | 30.83240 | -89.10886 | 33999 ft | 360 kts | 277° |
| 2026-05-01 13:58 | 30.84034 | -89.16631 | 34001 ft | 360 kts | 277° |
| 2026-05-01 13:59 | 30.84827 | -89.22387 | 34004 ft | 360 kts | 277° |
| 2026-05-01 13:59 | 30.85609 | -89.28134 | 34011 ft | 360 kts | 277° |
| 2026-05-01 14:00 | 30.86394 | -89.33848 | 34016 ft | 360 kts | 277° |
| 2026-05-01 14:00 | 30.87184 | -89.39595 | 34019 ft | 359 kts | 277° |
| 2026-05-01 14:01 | 30.87967 | -89.45341 | 34023 ft | 359 kts | 277° |
| 2026-05-01 14:01 | 30.88747 | -89.51091 | 34031 ft | 360 kts | 277° |
| 2026-05-01 14:02 | 30.89522 | -89.56839 | 34036 ft | 360 kts | 277° |
| 2026-05-01 14:02 | 30.90295 | -89.62555 | 34029 ft | 360 kts | 277° |
| 2026-05-01 14:03 | 30.91069 | -89.68313 | 34041 ft | 360 kts | 277° |
| 2026-05-01 14:03 | 30.91841 | -89.74068 | 34046 ft | 360 kts | 277° |
| 2026-05-01 14:04 | 30.92611 | -89.79822 | 34044 ft | 360 kts | 277° |
| 2026-05-01 14:04 | 30.93247 | -89.84606 | 34045 ft | 360 kts | 277° |
| 2026-05-01 14:05 | 30.94132 | -89.91292 | 34044 ft | 359 kts | 276° |
| 2026-05-01 14:05 | 30.94897 | -89.97046 | 34045 ft | 359 kts | 276° |
| 2026-05-01 14:06 | 30.95654 | -90.02799 | 34033 ft | 359 kts | 276° |
| 2026-05-01 14:06 | 30.96399 | -90.08512 | 34045 ft | 359 kts | 276° |
| 2026-05-01 14:07 | 30.97146 | -90.14267 | 34046 ft | 359 kts | 276° |
| 2026-05-01 14:08 | 30.98269 | -90.22889 | 34043 ft | 359 kts | 276° |
| 2026-05-01 14:08 | 30.99018 | -90.28642 | 34043 ft | 359 kts | 276° |
| 2026-05-01 14:09 | 30.99751 | -90.34348 | 34045 ft | 358 kts | 276° |
| 2026-05-01 14:09 | 31.00487 | -90.40090 | 34036 ft | 358 kts | 276° |
| 2026-05-01 14:10 | 31.01223 | -90.45826 | 34043 ft | 357 kts | 276° |
| 2026-05-01 14:10 | 31.01953 | -90.51553 | 34040 ft | 357 kts | 276° |
| 2026-05-01 14:11 | 31.02678 | -90.57285 | 34028 ft | 357 kts | 276° |
| 2026-05-01 14:11 | 31.03767 | -90.65827 | 34035 ft | 356 kts | 276° |
| 2026-05-01 14:12 | 31.04490 | -90.71546 | 34036 ft | 357 kts | 276° |
| 2026-05-01 14:12 | 31.05209 | -90.77268 | 34030 ft | 356 kts | 276° |
| 2026-05-01 14:13 | 31.05804 | -90.82018 | 34028 ft | 356 kts | 276° |
| 2026-05-01 14:13 | 31.06629 | -90.88658 | 34036 ft | 356 kts | 275° |
| 2026-05-01 14:14 | 31.07335 | -90.94368 | 34038 ft | 355 kts | 275° |
| 2026-05-01 14:14 | 31.08042 | -91.00074 | 34038 ft | 355 kts | 275° |
| 2026-05-01 14:15 | 31.08749 | -91.05776 | 34044 ft | 355 kts | 275° |
| 2026-05-01 14:15 | 31.09445 | -91.11431 | 34045 ft | 354 kts | 275° |
| 2026-05-01 14:16 | 31.10140 | -91.17116 | 34041 ft | 354 kts | 275° |
| 2026-05-01 14:16 | 31.10832 | -91.22795 | 34040 ft | 353 kts | 275° |
| 2026-05-01 14:17 | 31.11520 | -91.28471 | 34035 ft | 353 kts | 275° |
| 2026-05-01 14:17 | 31.12210 | -91.34134 | 34049 ft | 352 kts | 275° |
| 2026-05-01 14:18 | 31.12888 | -91.39760 | 34055 ft | 352 kts | 275° |
| 2026-05-01 14:18 | 31.13453 | -91.44464 | 34057 ft | 352 kts | 275° |
| 2026-05-01 14:19 | 31.14245 | -91.51075 | 34062 ft | 351 kts | 275° |
| 2026-05-01 14:19 | 31.14915 | -91.56723 | 34062 ft | 351 kts | 275° |
| 2026-05-01 14:20 | 31.15913 | -91.65141 | 34064 ft | 350 kts | 275° |
| 2026-05-01 14:21 | 31.16580 | -91.70768 | 34064 ft | 350 kts | 275° |
| 2026-05-01 14:21 | 31.17245 | -91.76388 | 34062 ft | 349 kts | 275° |
| 2026-05-01 14:22 | 31.18225 | -91.84758 | 34055 ft | 348 kts | 275° |
| 2026-05-01 14:22 | 31.18876 | -91.90350 | 34055 ft | 347 kts | 275° |
| 2026-05-01 14:23 | 31.19510 | -91.95875 | 34052 ft | 347 kts | 275° |
| 2026-05-01 14:23 | 31.20159 | -92.01461 | 34049 ft | 347 kts | 275° |
| 2026-05-01 14:24 | 31.20802 | -92.07001 | 34049 ft | 346 kts | 275° |
| 2026-05-01 14:24 | 31.21435 | -92.12558 | 34049 ft | 345 kts | 274° |
| 2026-05-01 14:25 | 31.22068 | -92.18107 | 34048 ft | 344 kts | 274° |
| 2026-05-01 14:25 | 31.22565 | -92.22469 | 34048 ft | 344 kts | 274° |
| 2026-05-01 14:26 | 31.23496 | -92.30733 | 34049 ft | 344 kts | 274° |
| 2026-05-01 14:27 | 31.24130 | -92.36273 | 34052 ft | 344 kts | 275° |
| 2026-05-01 14:27 | 31.24758 | -92.41808 | 34050 ft | 343 kts | 274° |
| 2026-05-01 14:28 | 31.25765 | -92.50058 | 34046 ft | 346 kts | 280° |
| 2026-05-01 14:28 | 31.27488 | -92.55369 | 34048 ft | 350 kts | 286° |
| 2026-05-01 14:29 | 31.29292 | -92.60660 | 34047 ft | 351 kts | 285° |
| 2026-05-01 14:30 | 31.32892 | -92.71224 | 34048 ft | 351 kts | 286° |
| 2026-05-01 14:31 | 31.35593 | -92.79171 | 34051 ft | 350 kts | 285° |
| 2026-05-01 14:31 | 31.37385 | -92.84467 | 34051 ft | 350 kts | 285° |
| 2026-05-01 14:32 | 31.39175 | -92.89760 | 34054 ft | 349 kts | 285° |
| 2026-05-01 14:32 | 31.40949 | -92.95013 | 34055 ft | 349 kts | 285° |
| 2026-05-01 14:33 | 31.42737 | -93.00299 | 34060 ft | 349 kts | 285° |
| 2026-05-01 14:33 | 31.44521 | -93.05584 | 34059 ft | 349 kts | 285° |
| 2026-05-01 14:34 | 31.46298 | -93.10863 | 34061 ft | 348 kts | 285° |
| 2026-05-01 14:34 | 31.48058 | -93.16113 | 34066 ft | 349 kts | 285° |
| 2026-05-01 14:35 | 31.49832 | -93.21397 | 34069 ft | 348 kts | 285° |
| 2026-05-01 14:35 | 31.51597 | -93.26678 | 34069 ft | 348 kts | 285° |
| 2026-05-01 14:36 | 31.53362 | -93.31959 | 34071 ft | 348 kts | 285° |
| 2026-05-01 14:36 | 31.55110 | -93.37198 | 34074 ft | 347 kts | 285° |
| 2026-05-01 14:37 | 31.56860 | -93.42461 | 34072 ft | 346 kts | 285° |
| 2026-05-01 14:37 | 31.58611 | -93.47719 | 34079 ft | 346 kts | 285° |
| 2026-05-01 14:38 | 31.60354 | -93.52968 | 34080 ft | 345 kts | 285° |
| 2026-05-01 14:38 | 31.61877 | -93.58236 | 34083 ft | 342 kts | 281° |
| 2026-05-01 14:39 | 31.63182 | -93.63592 | 34087 ft | 342 kts | 281° |
| 2026-05-01 14:39 | 31.64471 | -93.68952 | 34096 ft | 340 kts | 281° |
| 2026-05-01 14:40 | 31.65794 | -93.74290 | 34098 ft | 340 kts | 281° |
| 2026-05-01 14:40 | 31.67128 | -93.79591 | 34101 ft | 338 kts | 281° |
| 2026-05-01 14:41 | 31.68449 | -93.84845 | 34105 ft | 337 kts | 281° |
| 2026-05-01 14:41 | 31.69776 | -93.90129 | 34105 ft | 337 kts | 281° |
| 2026-05-01 14:42 | 31.71089 | -93.95399 | 34106 ft | 336 kts | 281° |
| 2026-05-01 14:42 | 31.72409 | -94.00672 | 34104 ft | 336 kts | 281° |
| 2026-05-01 14:43 | 31.73712 | -94.05898 | 34105 ft | 336 kts | 281° |
| 2026-05-01 14:43 | 31.75016 | -94.11163 | 34101 ft | 336 kts | 281° |
| 2026-05-01 14:44 | 31.76322 | -94.16438 | 34100 ft | 336 kts | 281° |
| 2026-05-01 14:44 | 31.78282 | -94.24355 | 34100 ft | 337 kts | 281° |
| 2026-05-01 14:45 | 31.80226 | -94.32256 | 34100 ft | 337 kts | 281° |
| 2026-05-01 14:46 | 31.81530 | -94.37554 | 34096 ft | 337 kts | 281° |
| 2026-05-01 14:46 | 31.83473 | -94.45515 | 34088 ft | 338 kts | 281° |
| 2026-05-01 14:47 | 31.84774 | -94.50825 | 34078 ft | 338 kts | 281° |
| 2026-05-01 14:48 | 31.86711 | -94.58759 | 34073 ft | 338 kts | 281° |
| 2026-05-01 14:48 | 31.88650 | -94.66754 | 34068 ft | 339 kts | 280° |
| 2026-05-01 14:49 | 31.91242 | -94.77421 | 34061 ft | 341 kts | 280° |
| 2026-05-01 14:50 | 31.93851 | -94.88199 | 34060 ft | 343 kts | 280° |
| 2026-05-01 14:51 | 31.95802 | -94.96318 | 34060 ft | 344 kts | 279° |
| 2026-05-01 14:52 | 31.97751 | -95.04439 | 34064 ft | 346 kts | 279° |
| 2026-05-01 14:53 | 31.99696 | -95.12661 | 34066 ft | 356 kts | 279° |
| 2026-05-01 14:53 | 32.00989 | -95.18336 | 33903 ft | 350 kts | 277° |
| 2026-05-01 14:53 | 32.01615 | -95.21049 | 33434 ft | 339 kts | 277° |
| 2026-05-01 14:54 | 32.02222 | -95.23708 | 33060 ft | 334 kts | 277° |
| 2026-05-01 14:54 | 32.02818 | -95.26341 | 32601 ft | 332 kts | 277° |
| 2026-05-01 14:54 | 32.03406 | -95.28931 | 32099 ft | 332 kts | 277° |
| 2026-05-01 14:54 | 32.04004 | -95.31562 | 31601 ft | 332 kts | 277° |
| 2026-05-01 14:55 | 32.04602 | -95.34192 | 31107 ft | 333 kts | 276° |
| 2026-05-01 14:55 | 32.05201 | -95.36826 | 30617 ft | 332 kts | 276° |
| 2026-05-01 14:55 | 32.05798 | -95.39457 | 30139 ft | 333 kts | 276° |
| 2026-05-01 14:55 | 32.06395 | -95.42096 | 29673 ft | 334 kts | 276° |
| 2026-05-01 14:56 | 32.06991 | -95.44739 | 29258 ft | 333 kts | 276° |
| 2026-05-01 14:56 | 32.07583 | -95.47369 | 28885 ft | 331 kts | 277° |
| 2026-05-01 14:56 | 32.08164 | -95.49944 | 28531 ft | 329 kts | 277° |
| 2026-05-01 14:56 | 32.08749 | -95.52534 | 28180 ft | 325 kts | 277° |
| 2026-05-01 14:57 | 32.09329 | -95.55107 | 27803 ft | 323 kts | 277° |
| 2026-05-01 14:57 | 32.10555 | -95.60177 | 27081 ft | 320 kts | 279° |
| 2026-05-01 14:57 | 32.11210 | -95.62675 | 26714 ft | 318 kts | 279° |
| 2026-05-01 14:58 | 32.11869 | -95.65153 | 26349 ft | 315 kts | 279° |
| 2026-05-01 14:58 | 32.12509 | -95.67575 | 25985 ft | 312 kts | 279° |
| 2026-05-01 14:58 | 32.13144 | -95.70007 | 25599 ft | 309 kts | 279° |
| 2026-05-01 14:58 | 32.13766 | -95.72420 | 25211 ft | 306 kts | 279° |
| 2026-05-01 14:59 | 32.14377 | -95.74814 | 24828 ft | 303 kts | 279° |
| 2026-05-01 14:59 | 32.14971 | -95.77188 | 24447 ft | 300 kts | 279° |
| 2026-05-01 14:59 | 32.15530 | -95.79545 | 24081 ft | 296 kts | 278° |
| 2026-05-01 14:59 | 32.16068 | -95.81879 | 23691 ft | 293 kts | 278° |
| 2026-05-01 15:00 | 32.17119 | -95.86487 | 22882 ft | 289 kts | 279° |
| 2026-05-01 15:00 | 32.17637 | -95.88741 | 22459 ft | 288 kts | 279° |
| 2026-05-01 15:00 | 32.18162 | -95.91014 | 22048 ft | 286 kts | 279° |
| 2026-05-01 15:01 | 32.18683 | -95.93273 | 21636 ft | 285 kts | 280° |
| 2026-05-01 15:01 | 32.19201 | -95.95523 | 21209 ft | 284 kts | 280° |
| 2026-05-01 15:01 | 32.19717 | -95.97764 | 20778 ft | 283 kts | 280° |
| 2026-05-01 15:01 | 32.20234 | -96.00008 | 20280 ft | 285 kts | 279° |
| 2026-05-01 15:02 | 32.20757 | -96.02290 | 19673 ft | 291 kts | 279° |
| 2026-05-01 15:02 | 32.20929 | -96.03043 | 19467 ft | 294 kts | 279° |
| 2026-05-01 15:02 | 32.21840 | -96.06998 | 18595 ft | 299 kts | 279° |
| 2026-05-01 15:02 | 32.22382 | -96.09335 | 18202 ft | 298 kts | 279° |
| 2026-05-01 15:03 | 32.22927 | -96.11691 | 17815 ft | 297 kts | 279° |
| 2026-05-01 15:03 | 32.23468 | -96.14035 | 17435 ft | 295 kts | 279° |
| 2026-05-01 15:03 | 32.24008 | -96.16373 | 17044 ft | 295 kts | 279° |
| 2026-05-01 15:03 | 32.24544 | -96.18707 | 16648 ft | 294 kts | 280° |
| 2026-05-01 15:04 | 32.25078 | -96.21033 | 16265 ft | 293 kts | 280° |
| 2026-05-01 15:04 | 32.25429 | -96.22567 | 16002 ft | 293 kts | 280° |
| 2026-05-01 15:04 | 32.26137 | -96.25667 | 15487 ft | 292 kts | 280° |
| 2026-05-01 15:04 | 32.26664 | -96.27976 | 15108 ft | 291 kts | 281° |
| 2026-05-01 15:05 | 32.27013 | -96.29501 | 14865 ft | 290 kts | 281° |
| 2026-05-01 15:05 | 32.27960 | -96.32463 | 14351 ft | 295 kts | 295° |
| 2026-05-01 15:05 | 32.29171 | -96.34436 | 13974 ft | 300 kts | 308° |
| 2026-05-01 15:05 | 32.30594 | -96.36232 | 13604 ft | 299 kts | 309° |
| 2026-05-01 15:06 | 32.32028 | -96.38004 | 13228 ft | 298 kts | 313° |
| 2026-05-01 15:06 | 32.33611 | -96.39600 | 12867 ft | 299 kts | 316° |
| 2026-05-01 15:06 | 32.34660 | -96.40649 | 12637 ft | 296 kts | 316° |
| 2026-05-01 15:06 | 32.36230 | -96.42225 | 12383 ft | 297 kts | 316° |
| 2026-05-01 15:07 | 32.37795 | -96.43827 | 12153 ft | 297 kts | 313° |
| 2026-05-01 15:07 | 32.39402 | -96.46381 | 11706 ft | 291 kts | 297° |
| 2026-05-01 15:07 | 32.40380 | -96.48481 | 11331 ft | 291 kts | 297° |
| 2026-05-01 15:07 | 32.41040 | -96.49894 | 11086 ft | 290 kts | 297° |
| 2026-05-01 15:08 | 32.41996 | -96.51941 | 10736 ft | 288 kts | 298° |
| 2026-05-01 15:08 | 32.42972 | -96.54015 | 10369 ft | 290 kts | 298° |
| 2026-05-01 15:08 | 32.43953 | -96.56096 | 10002 ft | 289 kts | 299° |
| 2026-05-01 15:08 | 32.44924 | -96.58161 | 9763 ft | 283 kts | 299° |
| 2026-05-01 15:09 | 32.45874 | -96.60185 | 9477 ft | 280 kts | 299° |
| 2026-05-01 15:09 | 32.46818 | -96.62199 | 9120 ft | 279 kts | 300° |
| 2026-05-01 15:09 | 32.47755 | -96.64203 | 8787 ft | 279 kts | 300° |
| 2026-05-01 15:09 | 32.48684 | -96.66223 | 8447 ft | 279 kts | 296° |
| 2026-05-01 15:10 | 32.49271 | -96.68402 | 8168 ft | 277 kts | 280° |
| 2026-05-01 15:10 | 32.49556 | -96.72800 | 7321 ft | 266 kts | 275° |
| 2026-05-01 15:10 | 32.49679 | -96.74976 | 6844 ft | 263 kts | 276° |
| 2026-05-01 15:11 | 32.49803 | -96.77133 | 6471 ft | 263 kts | 276° |
| 2026-05-01 15:11 | 32.50183 | -96.81356 | 6075 ft | 254 kts | 291° |
| 2026-05-01 15:11 | 32.50928 | -96.83249 | 6011 ft | 254 kts | 300° |
| 2026-05-01 15:12 | 32.51732 | -96.85103 | 6015 ft | 248 kts | 300° |
| 2026-05-01 15:12 | 32.53259 | -96.88655 | 6016 ft | 236 kts | 300° |
| 2026-05-01 15:12 | 32.54003 | -96.90380 | 6017 ft | 234 kts | 300° |
| 2026-05-01 15:13 | 32.56222 | -96.95543 | 6021 ft | 235 kts | 300° |
| 2026-05-01 15:14 | 32.57702 | -96.98990 | 6022 ft | 234 kts | 300° |
| 2026-05-01 15:14 | 32.58528 | -97.00642 | 6020 ft | 231 kts | 313° |
| 2026-05-01 15:14 | 32.61115 | -97.02603 | 5715 ft | 219 kts | 350° |
| 2026-05-01 15:15 | 32.64088 | -97.02747 | 5182 ft | 213 kts | 3° |
| 2026-05-01 15:15 | 32.67038 | -97.02729 | 4617 ft | 211 kts | 3° |
| 2026-05-01 15:16 | 32.69885 | -97.02715 | 4093 ft | 193 kts | 4° |
| 2026-05-01 15:16 | 32.72490 | -97.02701 | 3563 ft | 181 kts | 5° |
| 2026-05-01 15:17 | 32.74903 | -97.02690 | 3128 ft | 156 kts | 5° |
| 2026-05-01 15:18 | 32.77833 | -97.02673 | 2552 ft | 134 kts | 5° |
| 2026-05-01 15:18 | 32.78771 | -97.02667 | 2379 ft | 135 kts | 4° |
| 2026-05-01 15:19 | 32.81573 | -97.02651 | 1837 ft | 135 kts | 4° |
| 2026-05-01 15:19 | 32.83447 | -97.02642 | 1477 ft | 134 kts | 4° |
| 2026-05-01 15:19 | 32.84386 | -97.02636 | 1298 ft | 135 kts | 2° |
| 2026-05-01 15:20 | 32.86240 | -97.02626 | 946 ft | 135 kts | 3° |
| 2026-05-01 15:20 | 32.87182 | -97.02621 | 768 ft | 135 kts | 2° |
| 2026-05-01 15:20 | 32.88118 | -97.02625 | 658 ft | 135 kts | 2° |
| 2026-05-01 15:21 | 32.89021 | -97.02610 | 619 ft | 115 kts | 360° |
| 2026-05-01 15:21 | 32.89679 | -97.02607 | 622 ft | 64 kts | 0° |
| 2026-05-01 15:21 | 32.89889 | -97.02650 | 616 ft | 19 kts | 326° |
| 2026-05-01 15:21 | 32.89996 | -97.02724 | 624 ft | 16 kts | 332° |
| 2026-05-01 15:22 | 32.90198 | -97.02803 | 624 ft | 18 kts | 0° |
| 2026-05-01 15:22 | 32.90332 | -97.02801 | 624 ft | 20 kts | 1° |
| 2026-05-01 15:22 | 32.90446 | -97.02801 | 618 ft | 13 kts | 351° |
| 2026-05-01 15:23 | 32.90467 | -97.02893 | 624 ft | 14 kts | 269° |
| 2026-05-01 15:23 | 32.90468 | -97.03017 | 616 ft | 17 kts | 271° |
| 2026-05-01 15:23 | 32.90470 | -97.03166 | 616 ft | 19 kts | 270° |
| 2026-05-01 15:23 | 32.90470 | -97.03274 | 624 ft | 9 kts | 270° |
| 2026-05-01 15:24 | 32.90470 | -97.03355 | 626 ft | 11 kts | 269° |
| 2026-05-01 15:24 | 32.90426 | -97.03399 | 622 ft | 11 kts | 181° |
| 2026-05-01 15:24 | 32.90346 | -97.03418 | 624 ft | 13 kts | 218° |
| 2026-05-01 15:24 | 32.90288 | -97.03474 | 621 ft | 7 kts | 206° |
| 2026-05-01 15:25 | 32.90278 | -97.03494 | 623 ft | 4 kts | 256° |
| 2026-05-01 15:25 | 32.90284 | -97.03525 | 616 ft | 3 kts | 289° |
| 2026-05-01 15:25 | 32.90290 | -97.03543 | 616 ft | 2 kts | 292° |
| 2026-05-01 15:25 | 32.90293 | -97.03551 | 616 ft | 0 kts | 292° |